Time,TemperatureF,DewpointF,PressureIn,WindDirection,WindDirectionDegrees,WindSpeedMPH,WindSpeedGustMPH,Humidity,HourlyPrecipIn,Conditions,Clouds,dailyrainin,SoftwareType,DateUTC
2013-03-22 00:02:00,25.0,22.0,26.46,NE,41,5.0,7.0,88,0.00,,,0.00,,2013-03-22 06:02:00,
2013-03-22 00:13:00,25.0,22.0,26.46,NE,41,5.0,7.0,88,0.00,,,0.00,,2013-03-22 06:13:00,
2013-03-22 00:22:00,25.0,22.0,26.46,NE,36,5.0,7.0,88,0.00,,,0.00,,2013-03-22 06:22:00,
2013-03-22 00:32:00,25.0,22.0,26.46,ENE,59,5.0,6.0,88,0.00,,,0.00,,2013-03-22 06:32:00,
2013-03-22 00:42:00,25.0,22.0,26.46,ENE,59,5.0,6.0,88,0.00,,,0.00,,2013-03-22 06:42:00,
2013-03-22 00:52:00,25.0,22.0,26.46,NE,44,3.0,6.0,88,0.00,,,0.00,,2013-03-22 06:52:00,
2013-03-22 01:02:00,24.0,21.0,26.46,NE,47,4.0,5.0,88,0.00,,,0.00,,2013-03-22 07:02:00,
2013-03-22 01:12:00,24.0,21.0,26.46,NE,47,4.0,5.0,88,0.00,,,0.00,,2013-03-22 07:12:00,
2013-03-22 01:22:00,25.0,22.0,26.46,NE,38,3.0,5.0,88,0.00,,,0.00,,2013-03-22 07:22:00,
2013-03-22 01:32:00,24.0,21.0,26.46,NE,38,0.0,4.0,88,0.00,,,0.00,,2013-03-22 07:32:00,
2013-03-22 01:42:00,24.0,21.0,26.46,NE,38,0.0,4.0,88,0.00,,,0.00,,2013-03-22 07:42:00,
2013-03-22 01:52:00,24.0,21.0,26.45,NE,38,1.0,2.0,88,0.00,,,0.00,,2013-03-22 07:52:00,
2013-03-22 02:03:00,24.0,21.0,26.45,NE,40,0.0,2.0,88,0.00,,,0.00,,2013-03-22 08:03:00,
2013-03-22 02:12:00,24.0,21.0,26.45,NE,40,0.0,2.0,88,0.00,,,0.00,,2013-03-22 08:12:00,
2013-03-22 02:22:00,24.0,21.0,26.46,NE,40,0.0,0.0,88,0.00,,,0.00,,2013-03-22 08:22:00,
2013-03-22 02:32:00,24.0,21.0,26.46,NE,40,0.0,0.0,88,0.00,,,0.00,,2013-03-22 08:32:00,
2013-03-22 02:42:00,24.0,21.0,26.46,NE,40,0.0,0.0,88,0.00,,,0.00,,2013-03-22 08:42:00,
2013-03-22 02:52:00,23.0,20.0,26.46,NE,40,0.0,0.0,88,0.00,,,0.00,,2013-03-22 08:52:00,
2013-03-22 03:02:00,23.0,20.0,26.45,NE,40,4.0,5.0,88,0.00,,,0.00,,2013-03-22 09:02:00,
2013-03-22 03:12:00,23.0,20.0,26.45,NE,40,4.0,5.0,88,0.00,,,0.00,,2013-03-22 09:12:00,
2013-03-22 03:22:00,23.0,20.0,26.45,NE,40,0.0,1.0,88,0.00,,,0.00,,2013-03-22 09:22:00,
2013-03-22 03:32:00,22.0,19.0,26.45,NE,40,0.0,0.0,88,0.00,,,0.00,,2013-03-22 09:32:00,
2013-03-22 03:42:00,22.0,19.0,26.45,NE,40,0.0,0.0,88,0.00,,,0.00,,2013-03-22 09:42:00,
2013-03-22 03:53:00,21.0,18.0,26.45,NNE,16,2.0,4.0,88,0.00,,,0.00,,2013-03-22 09:53:00,
2013-03-22 04:03:00,21.0,18.0,26.44,NE,52,2.0,5.0,88,0.00,,,0.00,,2013-03-22 10:03:00,
2013-03-22 04:12:00,21.0,18.0,26.44,NE,52,2.0,5.0,88,0.00,,,0.00,,2013-03-22 10:12:00,
2013-03-22 04:22:00,21.0,18.0,26.44,NE,53,0.0,1.0,88,0.00,,,0.00,,2013-03-22 10:22:00,
2013-03-22 04:32:00,20.0,17.0,26.44,NE,53,0.0,1.0,88,0.00,,,0.00,,2013-03-22 10:32:00,
2013-03-22 04:42:00,20.0,17.0,26.44,NE,53,0.0,1.0,88,0.00,,,0.00,,2013-03-22 10:42:00,
2013-03-22 04:52:00,21.0,18.0,26.43,NE,53,0.0,0.0,88,0.00,,,0.00,,2013-03-22 10:52:00,
2013-03-22 05:03:00,20.0,17.0,26.43,NE,52,0.0,0.0,88,0.00,,,0.00,,2013-03-22 11:03:00,
2013-03-22 05:12:00,20.0,17.0,26.43,NE,52,0.0,0.0,88,0.00,,,0.00,,2013-03-22 11:12:00,
2013-03-22 05:22:00,20.0,17.0,26.43,ENE,58,2.0,3.0,88,0.00,,,0.00,,2013-03-22 11:22:00,
2013-03-22 05:32:00,20.0,17.0,26.44,ESE,106,2.0,6.0,88,0.00,,,0.00,,2013-03-22 11:32:00,
2013-03-22 05:42:00,20.0,17.0,26.44,ESE,106,2.0,6.0,88,0.00,,,0.00,,2013-03-22 11:42:00,
2013-03-22 05:52:00,19.0,16.0,26.44,ESE,107,1.0,4.0,88,0.00,,,0.00,,2013-03-22 11:52:00,
2013-03-22 06:02:00,18.0,15.0,26.44,ESE,107,1.0,2.0,88,0.00,,,0.00,,2013-03-22 12:02:00,
2013-03-22 06:12:00,18.0,15.0,26.44,ESE,107,0.0,0.0,88,0.00,,,0.00,,2013-03-22 12:12:00,
2013-03-22 06:22:00,18.0,15.0,26.44,ESE,107,0.0,0.0,88,0.00,,,0.00,,2013-03-22 12:22:00,
2013-03-22 06:32:00,19.0,16.0,26.44,ESE,107,0.0,1.0,88,0.00,,,0.00,,2013-03-22 12:32:00,
2013-03-22 06:42:00,19.0,16.0,26.44,ESE,107,0.0,1.0,88,0.00,,,0.00,,2013-03-22 12:42:00,
2013-03-22 06:52:00,20.0,17.0,26.44,ESE,105,1.0,2.0,88,0.00,,,0.00,,2013-03-22 12:52:00,
2013-03-22 07:02:00,20.0,17.0,26.44,ESE,105,0.0,2.0,89,0.00,,,0.00,,2013-03-22 13:02:00,
2013-03-22 07:12:00,20.0,17.0,26.44,ESE,105,0.0,2.0,89,0.00,,,0.00,,2013-03-22 13:12:00,
2013-03-22 07:22:00,20.0,17.0,26.44,ESE,105,1.0,3.0,89,0.00,,,0.00,,2013-03-22 13:22:00,
2013-03-22 07:32:00,21.0,18.0,26.44,ESE,105,0.0,1.0,89,0.00,,,0.00,,2013-03-22 13:32:00,
2013-03-22 07:42:00,21.0,18.0,26.44,ESE,105,0.0,1.0,89,0.00,,,0.00,,2013-03-22 13:42:00,
2013-03-22 07:52:00,21.0,18.0,26.44,ESE,105,0.0,1.0,89,0.00,,,0.00,,2013-03-22 13:52:00,
2013-03-22 08:02:00,22.0,19.0,26.43,ESE,105,0.0,0.0,89,0.00,,,0.00,,2013-03-22 14:02:00,
2013-03-22 08:12:00,22.0,19.0,26.43,ESE,105,0.0,0.0,89,0.00,,,0.00,,2013-03-22 14:12:00,
2013-03-22 08:22:00,22.0,19.0,26.43,ESE,106,3.0,5.0,89,0.00,,,0.00,,2013-03-22 14:22:00,
2013-03-22 08:32:00,22.0,19.0,26.44,ESE,107,2.0,5.0,89,0.00,,,0.00,,2013-03-22 14:32:00,
2013-03-22 08:42:00,22.0,19.0,26.44,ESE,107,2.0,5.0,89,0.00,,,0.00,,2013-03-22 14:42:00,
2013-03-22 08:52:00,20.0,17.0,26.44,SE,129,5.0,8.0,89,0.00,,,0.00,,2013-03-22 14:52:00,
2013-03-22 09:02:00,21.0,18.0,26.44,ESE,117,7.0,8.0,89,0.00,,,0.00,,2013-03-22 15:02:00,
2013-03-22 09:12:00,21.0,18.0,26.44,ESE,117,7.0,8.0,89,0.00,,,0.00,,2013-03-22 15:12:00,
2013-03-22 09:22:00,22.0,19.0,26.44,ESE,123,1.0,6.0,89,0.00,,,0.00,,2013-03-22 15:22:00,
2013-03-22 09:32:00,24.0,21.0,26.45,ESE,123,3.0,6.0,89,0.00,,,0.00,,2013-03-22 15:32:00,
2013-03-22 09:42:00,24.0,21.0,26.45,ESE,123,3.0,6.0,89,0.00,,,0.00,,2013-03-22 15:42:00,
2013-03-22 09:53:00,23.0,20.0,26.45,ESE,115,5.0,9.0,89,0.00,,,0.00,,2013-03-22 15:53:00,
2013-03-22 10:02:00,24.0,21.0,26.45,SSE,160,3.0,6.0,88,0.00,,,0.00,,2013-03-22 16:02:00,
2013-03-22 10:13:00,26.0,23.0,26.45,SSE,160,0.0,4.0,88,0.00,,,0.00,,2013-03-22 16:13:00,
2013-03-22 10:22:00,26.0,23.0,26.45,SSE,160,0.0,4.0,88,0.00,,,0.00,,2013-03-22 16:22:00,
2013-03-22 10:32:00,28.0,25.0,26.45,ESE,115,5.0,7.0,87,0.02,,,0.02,,2013-03-22 16:32:00,
2013-03-22 10:42:00,27.0,23.0,26.45,ESE,109,4.0,8.0,85,0.03,,,0.03,,2013-03-22 16:42:00,
2013-03-22 10:52:00,27.0,23.0,26.45,ESE,109,4.0,8.0,85,0.03,,,0.03,,2013-03-22 16:52:00,
2013-03-22 11:03:00,28.0,24.0,26.45,ESE,111,5.0,8.0,84,0.03,,,0.03,,2013-03-22 17:03:00,
2013-03-22 11:12:00,29.0,25.0,26.46,ESE,119,5.0,9.0,83,0.04,,,0.04,,2013-03-22 17:12:00,
2013-03-22 11:23:00,29.0,25.0,26.46,ESE,119,5.0,9.0,83,0.04,,,0.04,,2013-03-22 17:23:00,
2013-03-22 11:32:00,29.0,25.0,26.46,East,96,6.0,11.0,83,0.02,,,0.04,,2013-03-22 17:32:00,
2013-03-22 11:42:00,29.0,25.0,26.46,East,96,6.0,11.0,83,0.02,,,0.04,,2013-03-22 17:42:00,
2013-03-22 11:53:00,30.0,25.0,26.46,ESE,114,4.0,9.0,83,0.01,,,0.04,,2013-03-22 17:53:00,
2013-03-22 12:02:00,32.0,27.0,26.46,SE,130,6.0,10.0,82,0.01,,,0.04,,2013-03-22 18:02:00,
2013-03-22 12:12:00,32.0,27.0,26.46,SE,130,6.0,10.0,82,0.01,,,0.04,,2013-03-22 18:12:00,
2013-03-22 12:22:00,32.0,27.0,26.46,ESE,121,7.0,11.0,80,0.01,,,0.05,,2013-03-22 18:22:00,
2013-03-22 12:33:00,34.0,29.0,26.45,ESE,119,5.0,9.0,81,0.01,,,0.05,,2013-03-22 18:33:00,
2013-03-22 12:42:00,34.0,29.0,26.45,ESE,119,5.0,9.0,81,0.01,,,0.05,,2013-03-22 18:42:00,
2013-03-22 12:52:00,34.0,28.0,26.46,ESE,105,5.0,8.0,78,0.01,,,0.05,,2013-03-22 18:52:00,
2013-03-22 13:02:00,34.0,27.0,26.46,ESE,118,4.0,8.0,76,0.01,,,0.05,,2013-03-22 19:02:00,
2013-03-22 13:12:00,34.0,27.0,26.46,ESE,118,4.0,8.0,76,0.01,,,0.05,,2013-03-22 19:12:00,
2013-03-22 13:22:00,34.0,27.0,26.46,ESE,121,7.0,9.0,74,0.00,,,0.05,,2013-03-22 19:22:00,
2013-03-22 13:32:00,33.0,26.0,26.46,East,92,5.0,8.0,76,0.00,,,0.05,,2013-03-22 19:32:00,
2013-03-22 13:42:00,33.0,26.0,26.46,East,92,5.0,8.0,76,0.00,,,0.05,,2013-03-22 19:42:00,
2013-03-22 13:52:00,33.0,26.0,26.46,East,96,2.0,10.0,76,0.00,,,0.05,,2013-03-22 19:52:00,
2013-03-22 14:02:00,33.0,26.0,26.46,East,80,3.0,9.0,74,0.00,,,0.05,,2013-03-22 20:02:00,
2013-03-22 14:12:00,33.0,26.0,26.46,East,80,3.0,9.0,74,0.00,,,0.05,,2013-03-22 20:12:00,
2013-03-22 14:22:00,33.0,25.0,26.46,NNE,30,5.0,12.0,72,0.00,,,0.05,,2013-03-22 20:22:00,
2013-03-22 14:32:00,32.0,24.0,26.45,NE,38,8.0,12.0,72,0.00,,,0.05,,2013-03-22 20:32:00,
2013-03-22 14:42:00,32.0,24.0,26.45,NE,38,8.0,12.0,72,0.00,,,0.05,,2013-03-22 20:42:00,
2013-03-22 14:52:00,32.0,24.0,26.45,North,360,5.0,11.0,73,0.00,,,0.05,,2013-03-22 20:52:00,
2013-03-22 15:02:00,32.0,26.0,26.46,NNE,22,4.0,10.0,77,0.00,,,0.05,,2013-03-22 21:02:00,
2013-03-22 15:12:00,31.0,25.0,26.46,NNE,32,5.0,6.0,79,0.00,,,0.05,,2013-03-22 21:12:00,
2013-03-22 15:22:00,31.0,25.0,26.46,NNE,32,5.0,6.0,79,0.00,,,0.05,,2013-03-22 21:22:00,
2013-03-22 15:32:00,30.0,25.0,26.46,NE,36,2.0,5.0,81,0.00,,,0.05,,2013-03-22 21:32:00,
2013-03-22 15:42:00,30.0,25.0,26.46,NE,36,2.0,5.0,81,0.00,,,0.05,,2013-03-22 21:42:00,
2013-03-22 15:53:00,30.0,25.0,26.46,NE,37,2.0,5.0,83,0.00,,,0.05,,2013-03-22 21:53:00,
2013-03-22 16:03:00,30.0,26.0,26.46,NE,37,0.0,0.0,84,0.00,,,0.05,,2013-03-22 22:03:00,
2013-03-22 16:12:00,30.0,26.0,26.46,NE,37,0.0,0.0,84,0.00,,,0.05,,2013-03-22 22:12:00,
2013-03-22 16:23:00,30.0,26.0,26.47,NE,37,0.0,0.0,85,0.00,,,0.05,,2013-03-22 22:23:00,
2013-03-22 16:32:00,30.0,26.0,26.47,NE,37,0.0,0.0,85,0.00,,,0.05,,2013-03-22 22:32:00,
2013-03-22 16:42:00,30.0,26.0,26.47,NE,37,0.0,0.0,85,0.00,,,0.05,,2013-03-22 22:42:00,
2013-03-22 16:53:00,30.0,26.0,26.47,North,350,3.0,6.0,86,0.00,,,0.05,,2013-03-22 22:53:00,
2013-03-22 17:02:00,30.0,27.0,26.48,NNE,15,5.0,10.0,87,0.00,,,0.05,,2013-03-22 23:02:00,
2013-03-22 17:12:00,30.0,27.0,26.48,NNE,15,5.0,10.0,87,0.00,,,0.05,,2013-03-22 23:12:00,
2013-03-22 17:22:00,29.0,26.0,26.49,NNW,333,4.0,8.0,87,0.00,,,0.05,,2013-03-22 23:22:00,
2013-03-22 17:32:00,29.0,26.0,26.49,NNE,30,7.0,10.0,88,0.00,,,0.05,,2013-03-22 23:32:00,
2013-03-22 17:42:00,29.0,26.0,26.49,NNE,30,7.0,10.0,88,0.00,,,0.05,,2013-03-22 23:42:00,
2013-03-22 17:52:00,29.0,26.0,26.49,North,10,7.0,12.0,88,0.00,,,0.05,,2013-03-22 23:52:00,
2013-03-22 18:02:00,29.0,26.0,26.50,NW,310,5.0,12.0,88,0.00,,,0.05,,2013-03-23 00:02:00,
2013-03-22 18:12:00,29.0,26.0,26.50,NW,310,5.0,12.0,88,0.00,,,0.05,,2013-03-23 00:12:00,
2013-03-22 18:23:00,29.0,26.0,26.51,NNE,24,7.0,12.0,89,0.00,,,0.05,,2013-03-23 00:23:00,
2013-03-22 18:32:00,28.0,25.0,26.52,NNE,29,7.0,14.0,89,0.00,,,0.05,,2013-03-23 00:32:00,
2013-03-22 18:42:00,28.0,25.0,26.53,NNW,344,9.0,18.0,89,0.00,,,0.05,,2013-03-23 00:42:00,
2013-03-22 18:52:00,28.0,25.0,26.53,NNW,344,9.0,18.0,89,0.00,,,0.05,,2013-03-23 00:52:00,
2013-03-22 19:03:00,28.0,25.0,26.54,NE,53,9.0,18.0,89,0.00,,,0.05,,2013-03-23 01:03:00,
2013-03-22 19:12:00,28.0,25.0,26.54,NE,53,9.0,18.0,89,0.00,,,0.05,,2013-03-23 01:12:00,
2013-03-22 19:22:00,28.0,25.0,26.55,North,9,10.0,18.0,90,0.00,,,0.05,,2013-03-23 01:22:00,
2013-03-22 19:32:00,28.0,25.0,26.55,North,360,9.0,16.0,90,0.00,,,0.05,,2013-03-23 01:32:00,
2013-03-22 19:42:00,28.0,25.0,26.55,North,360,9.0,16.0,90,0.00,,,0.05,,2013-03-23 01:42:00,
2013-03-22 19:52:00,28.0,25.0,26.56,ENE,63,7.0,11.0,90,0.00,,,0.05,,2013-03-23 01:52:00,
2013-03-22 20:02:00,27.0,24.0,26.57,NE,56,7.0,14.0,90,0.00,,,0.05,,2013-03-23 02:02:00,
2013-03-22 20:12:00,27.0,24.0,26.57,NE,56,7.0,14.0,90,0.00,,,0.05,,2013-03-23 02:12:00,
2013-03-22 20:22:00,27.0,24.0,26.58,NNW,330,10.0,14.0,90,0.00,,,0.05,,2013-03-23 02:22:00,
2013-03-22 20:32:00,27.0,24.0,26.58,NE,46,8.0,15.0,90,0.00,,,0.05,,2013-03-23 02:32:00,
2013-03-22 20:42:00,27.0,24.0,26.58,NE,46,8.0,15.0,90,0.00,,,0.05,,2013-03-23 02:42:00,
2013-03-22 20:52:00,26.0,23.0,26.59,NNW,346,11.0,16.0,90,0.00,,,0.05,,2013-03-23 02:52:00,
2013-03-22 21:02:00,25.0,22.0,26.60,NNE,16,12.0,19.0,90,0.00,,,0.05,,2013-03-23 03:02:00,
2013-03-22 21:12:00,25.0,22.0,26.60,NNE,16,12.0,19.0,90,0.00,,,0.05,,2013-03-23 03:12:00,
2013-03-22 21:22:00,25.0,22.0,26.61,NNE,33,13.0,23.0,90,0.00,,,0.05,,2013-03-23 03:22:00,
2013-03-22 21:33:00,24.0,22.0,26.61,NNE,30,11.0,20.0,90,0.00,,,0.05,,2013-03-23 03:33:00,
2013-03-22 21:43:00,24.0,22.0,26.61,NNE,30,11.0,20.0,90,0.00,,,0.05,,2013-03-23 03:43:00,
2013-03-22 21:53:00,23.0,21.0,26.62,NNE,30,12.0,20.0,90,0.00,,,0.05,,2013-03-23 03:53:00,
2013-03-22 22:02:00,23.0,21.0,26.62,North,360,10.0,16.0,90,0.00,,,0.05,,2013-03-23 04:02:00,
2013-03-22 22:12:00,23.0,21.0,26.62,North,360,10.0,16.0,90,0.00,,,0.05,,2013-03-23 04:12:00,
2013-03-22 22:23:00,23.0,21.0,26.63,NE,38,11.0,23.0,90,0.00,,,0.05,,2013-03-23 04:23:00,
2013-03-22 22:32:00,22.0,20.0,26.63,North,360,12.0,24.0,90,0.00,,,0.05,,2013-03-23 04:32:00,
2013-03-22 22:43:00,22.0,20.0,26.63,North,360,12.0,24.0,90,0.00,,,0.05,,2013-03-23 04:43:00,
2013-03-22 22:53:00,22.0,20.0,26.63,NNE,15,11.0,23.0,90,0.00,,,0.05,,2013-03-23 04:53:00,
2013-03-22 23:02:00,21.0,19.0,26.64,NE,38,11.0,24.0,90,0.00,,,0.05,,2013-03-23 05:02:00,
2013-03-22 23:12:00,21.0,19.0,26.64,NE,38,11.0,24.0,90,0.00,,,0.05,,2013-03-23 05:12:00,
2013-03-22 23:22:00,20.0,18.0,26.64,NNE,27,10.0,21.0,90,0.00,,,0.05,,2013-03-23 05:22:00,
2013-03-22 23:32:00,20.0,17.0,26.64,NNE,15,12.0,16.0,89,0.00,,,0.05,,2013-03-23 05:32:00,
2013-03-22 23:42:00,20.0,17.0,26.64,NNE,15,12.0,16.0,89,0.00,,,0.05,,2013-03-23 05:42:00,
2013-03-22 23:52:00,20.0,17.0,26.66,NNE,19,10.0,19.0,89,0.00,,,0.05,,2013-03-23 05:52:00,